Latest Weather Observations for Avalon

IDV60801

Issued at 11:31 pm EDT Tuesday 3 March 2015 (issued every 30 minutes, with the page automatically refreshed every 10 minutes)

About weather observations | Map of weather stations | Latest weather observations for VIC | Other Formats
Station Details ID: 087113 Name: AVALON AIRPORT Lat: -38.03 Lon: 144.48 Height: 10.6 m
Data from the previous 72 hours. | See also: Recent months at Avalon
Date/Time
EDT
Temp
°C
App
Temp
°C
Dew
Point
Rel
Hum
%
Delta-T
°C
Wind Press
QNH
hPa
Press
MSL
hPa
Rain
since 9 am
mm
Dir
 
Spd
km/h
Gust
km/h
Spd
kts
Gust
kts
03/11:30pm 15.0 12.8 12.1 83 1.6 SSW 15 17 8 9 1016.8 1016.8 -
03/11:00pm 14.9 13.1 12.2 84 1.5 SSW 13 17 7 9 1017.0 1017.0 -
03/10:30pm 15.4 13.6 12.2 81 1.7 SSW 13 17 7 9 1017.1 1017.1 -
03/10:00pm 15.6 13.7 11.8 78 2.1 S 13 17 7 9 1016.9 1016.9 -
03/09:30pm 15.9 13.1 11.5 75 2.4 SSW 17 20 9 11 1016.7 1016.7 -
03/09:00pm 16.4 13.7 11.8 74 2.5 S 17 20 9 11 1016.5 1016.5 0.0
03/08:30pm 16.7 13.5 11.4 71 2.9 S 19 24 10 13 1016.2 1016.2 -
03/08:00pm 17.1 13.9 11.4 69 3.1 S 19 22 10 12 1015.9 1015.9 -
03/07:30pm 18.2 15.0 12.0 67 3.4 S 20 24 11 13 1015.7 1015.7 -
03/07:00pm 19.1 15.7 11.2 60 4.3 S 20 26 11 14 1015.6 1015.6 -
03/06:30pm 19.8 16.3 11.0 57 4.8 S 20 26 11 14 1015.5 1015.5 -
03/06:00pm 20.5 17.1 11.2 55 5.1 SSE 20 28 11 15 1015.4 1015.4 -
03/05:30pm 21.2 17.6 10.7 51 5.7 SSE 20 30 11 16 1015.2 1015.2 -
03/05:00pm 21.4 17.2 9.6 47 6.3 SSE 22 30 12 16 1015.2 1015.2 -
03/04:30pm 21.2 17.6 11.8 55 5.2 ESE 22 28 12 15 1015.2 1015.2 -
03/04:00pm 21.8 18.8 12.6 56 5.2 ESE 20 32 11 17 1015.5 1015.5 -
03/03:30pm 21.5 18.6 12.4 56 5.1 ESE 19 26 10 14 1015.8 1015.8 -
03/03:00pm 21.5 18.6 10.9 51 5.8 ESE 17 24 9 13 1016.0 1016.0 0.0
03/02:30pm 21.1 18.3 11.4 54 5.4 SE 17 22 9 12 1016.3 1016.3 -
03/02:00pm 21.5 19.9 11.5 53 5.6 S 11 19 6 10 1016.6 1016.6 -
03/01:30pm 21.7 20.0 12.3 55 5.3 S 13 24 7 13 1016.9 1016.9 -
03/01:00pm 20.5 18.2 11.7 57 4.9 SW 15 22 8 12 1017.2 1017.2 -
03/12:30pm - - - - - - - - - - - 1017.2 -
03/12:00pm 19.6 - 10.3 55 5.0 - - - - - 1017.6 1017.6 -
03/11:30am 19.3 17.2 11.1 59 4.5 S 13 19 7 10 1018.0 1018.0 0.0
03/11:00am 19.1 16.7 11.4 61 4.2 S 15 19 8 10 1017.8 1017.8 0.0
03/10:30am 19.1 16.5 12.1 64 3.9 S 17 20 9 11 1017.6 1017.6 0.0
03/10:00am 18.3 15.9 12.5 69 3.2 SSW 17 24 9 13 1017.6 1017.6 0.0
03/09:30am 17.7 16.2 13.0 74 2.6 WSW 13 20 7 11 1017.6 1017.6 0.0
03/09:00am 15.9 14.4 13.2 84 1.5 WSW 13 15 7 8 1017.5 1017.5 0.0
03/08:30am 14.6 13.8 13.0 90 0.9 W 9 11 5 6 1017.1 1017.1 0.0
03/08:00am 14.0 13.1 12.6 91 0.8 W 9 13 5 7 1017.0 1017.0 0.0
03/07:30am 13.6 12.6 12.3 92 0.7 W 9 11 5 6 1016.7 1016.7 0.0
03/07:00am 13.4 12.7 12.1 92 0.7 NW 7 9 4 5 1016.2 1016.2 0.0
03/06:30am 13.7 12.7 12.3 91 0.8 W 9 11 5 6 1016.0 1016.0 0.0
03/05:30am 13.9 12.9 12.3 90 0.9 W 9 11 5 6 1015.6 1015.6 0.0
03/05:00am 13.6 12.0 11.5 87 1.1 NNW 11 11 6 6 1015.4 1015.4 0.0
03/04:30am 14.8 14.3 12.1 84 1.5 W 6 6 3 3 1015.5 1015.5 0.0
03/04:00am 15.4 14.9 12.7 84 1.5 W 7 9 4 5 1015.7 1015.7 0.0
03/03:30am 15.7 14.9 13.0 84 1.5 WSW 9 11 5 6 1015.5 1015.5 0.0
03/03:00am 15.9 15.4 12.8 82 1.7 SW 7 9 4 5 1015.1 1015.1 0.0
03/02:30am 16.0 15.1 12.7 81 1.8 WSW 9 11 5 6 1015.6 1015.6 0.0
03/02:00am 16.1 15.3 12.8 81 1.8 W 9 11 5 6 1016.0 1016.0 0.0
03/01:30am 16.1 14.6 13.0 82 1.7 WNW 13 15 7 8 1016.5 1016.5 0.0
03/01:00am 16.2 15.5 13.1 82 1.7 NW 9 11 5 6 1016.1 1016.1 0.0
03/12:30am 16.2 16.7 12.7 80 1.9 NW 2 7 1 4 1015.8 1015.8 0.0
03/12:00am 16.5 15.3 12.8 79 2.1 SSW 11 13 6 7 1015.5 1015.5 0.0
 
Date/Time
EDT
Temp
°C
App
Temp
°C
Dew
Point
Rel
Hum
%
Delta-T
°C
Wind Press
QNH
hPa
Press
MSL
hPa
Rain
since 9 am
mm
Dir
 
Spd
km/h
Gust
km/h
Spd
kts
Gust
kts
02/11:30pm 16.6 16.1 12.6 77 2.2 SSW 7 9 4 5 1015.7 1015.7 0.0
02/11:00pm 16.9 16.3 12.4 75 2.5 SE 7 7 4 4 1015.9 1015.9 0.0
02/10:30pm 17.1 16.5 12.2 73 2.7 S 7 9 4 5 1015.9 1015.9 0.0
02/10:00pm 17.6 17.2 12.3 71 2.9 ESE 6 7 3 4 1015.7 1015.7 0.0
02/09:30pm 17.6 18.4 12.5 72 2.8 CALM 0 0 0 0 1015.6 1015.6 0.0
02/09:00pm 17.8 17.0 12.9 73 2.7 S 9 13 5 7 1015.2 1015.2 0.0
02/08:30pm 17.9 16.2 12.6 71 3.0 SSW 13 15 7 8 1015.0 1015.0 0.0
02/08:00pm 18.4 17.2 11.7 65 3.7 S 9 13 5 7 1014.6 1014.6 0.0
02/07:30pm 19.2 18.0 11.5 61 4.2 SSE 9 15 5 8 1014.5 1014.5 0.0
02/07:00pm 19.6 17.6 11.6 60 4.4 ESE 13 15 7 8 1013.8 1013.8 0.0
02/06:30pm 20.8 18.6 9.4 48 6.1 E 11 13 6 7 1013.9 1013.9 0.0
02/06:00pm 20.5 18.4 9.7 50 5.8 ESE 11 15 6 8 1013.7 1013.7 0.0
02/05:30pm 20.9 18.1 10.1 50 5.8 SE 15 19 8 10 1013.6 1013.6 0.0
02/05:00pm 20.8 18.3 9.7 49 5.9 SE 13 19 7 10 1013.8 1013.8 0.0
02/04:30pm 21.1 20.0 10.0 49 6.0 E 6 13 3 7 1013.9 1013.9 0.0
02/04:00pm 20.9 19.7 9.5 48 6.1 NE 6 9 3 5 1014.5 1014.5 0.0
02/03:30pm 20.4 19.1 9.9 51 5.6 SSE 7 11 4 6 1014.8 1014.8 0.0
02/03:00pm 19.8 18.0 9.4 51 5.5 SE 9 15 5 8 1015.1 1015.1 0.0
02/02:30pm 19.1 17.0 9.6 54 5.0 ESE 11 15 6 8 1015.7 1015.7 0.0
02/02:00pm 18.5 15.9 9.3 55 4.8 SE 13 19 7 10 1015.9 1015.9 0.0
02/01:30pm 17.7 14.7 9.1 57 4.5 SE 15 20 8 11 1016.2 1016.2 0.0
02/01:00pm 17.9 15.5 10.0 60 4.2 SE 13 19 7 10 1016.7 1016.7 0.0
02/12:30pm 18.4 14.8 9.7 57 4.6 ESE 19 26 10 14 1017.1 1017.1 0.0
02/12:00pm 18.6 15.5 10.2 58 4.5 E 17 24 9 13 1017.4 1017.4 0.0
02/11:30am 18.1 15.5 9.5 57 4.5 ENE 13 24 7 13 1017.9 1017.9 0.0
02/11:00am 17.8 14.8 9.4 58 4.4 E 15 22 8 12 1018.4 1018.4 0.0
02/10:30am 17.1 13.7 9.3 60 4.1 ENE 17 26 9 14 1018.3 1018.3 0.0
02/10:00am 16.2 14.2 10.1 67 3.2 NNE 11 19 6 10 1018.5 1018.5 0.0
02/09:30am 14.6 13.0 10.2 75 2.3 NNW 9 13 5 7 1018.7 1018.7 0.0
02/09:00am 13.4 11.8 10.2 81 1.7 NW 9 11 5 6 1018.7 1018.7 0.0
02/08:30am 11.5 9.7 9.4 87 1.1 NW 9 13 5 7 1018.5 1018.5 0.0
02/08:00am 9.7 7.3 8.8 94 0.4 NW 11 11 6 6 1018.3 1018.3 0.0
02/07:30am 8.2 5.0 7.0 92 0.6 NNW 13 15 7 8 1018.3 1018.3 0.0
02/07:00am 8.4 6.0 6.9 90 0.7 WNW 9 11 5 6 1018.1 1018.1 0.0
02/06:30am 8.8 6.5 7.3 90 0.7 WNW 9 11 5 6 1018.0 1018.0 0.0
02/06:00am 8.8 6.8 7.1 89 0.8 NW 7 9 4 5 1017.9 1017.9 0.0
02/05:30am 9.4 6.8 7.7 89 0.8 WNW 11 11 6 6 1018.0 1018.0 0.0
02/05:00am 9.5 6.9 7.6 88 0.9 WNW 11 13 6 7 1018.1 1018.1 0.0
02/04:30am 9.3 6.6 7.4 88 0.9 WNW 11 13 6 7 1017.9 1017.9 0.0
02/04:00am 10.1 7.5 7.9 86 1.1 NW 11 13 6 7 1018.2 1018.2 0.0
02/03:30am 10.1 7.6 8.0 87 1.0 NW 11 13 6 7 1018.3 1018.3 0.0
02/03:00am 9.9 7.0 8.2 89 0.8 NNW 13 15 7 8 1018.5 1018.5 0.0
02/02:30am 10.8 8.8 8.6 86 1.1 WNW 9 11 5 6 1018.7 1018.7 0.0
02/02:00am 10.9 8.5 8.7 86 1.1 WNW 11 15 6 8 1019.1 1019.1 0.0
02/01:30am 10.7 7.9 8.5 86 1.1 NW 13 15 7 8 1019.2 1019.2 0.0
02/01:00am 10.8 8.4 8.6 86 1.1 NW 11 13 6 7 1018.8 1018.8 0.0
02/12:30am 10.5 8.8 8.3 86 1.1 NW 7 9 4 5 1018.7 1018.7 0.0
02/12:00am 11.5 9.8 8.5 82 1.5 NW 7 11 4 6 1018.3 1018.3 0.0
 
Date/Time
EDT
Temp
°C
App
Temp
°C
Dew
Point
Rel
Hum
%
Delta-T
°C
Wind Press
QNH
hPa
Press
MSL
hPa
Rain
since 9 am
mm
Dir
 
Spd
km/h
Gust
km/h
Spd
kts
Gust
kts
01/11:30pm 12.2 10.6 8.7 79 1.7 SSW 7 13 4 7 1018.7 1018.7 0.0
01/11:00pm 12.6 9.6 9.1 79 1.8 SSW 15 17 8 9 1018.8 1018.8 0.0
01/10:30pm 13.3 10.2 9.0 75 2.2 SSW 15 20 8 11 1018.9 1018.9 0.0
01/10:00pm 13.9 10.5 9.3 74 2.3 SSW 17 20 9 11 1018.9 1018.9 0.0
01/09:30pm 14.3 10.4 9.3 72 2.6 SSW 20 28 11 15 1018.6 1018.6 0.0
01/09:00pm 14.9 10.7 9.7 71 2.7 SSW 22 28 12 15 1018.2 1018.2 0.0
01/08:30pm 15.4 11.3 10.0 70 2.8 S 22 28 12 15 1017.8 1017.8 0.0
01/08:00pm 15.9 11.6 10.7 71 2.8 S 24 30 13 16 1017.4 1017.4 0.0
01/07:30pm 16.4 11.3 10.5 68 3.1 S 28 37 15 20 1017.5 1017.5 0.0
01/07:00pm 17.5 12.1 10.9 65 3.5 SSW 30 37 16 20 1017.4 1017.4 0.0
01/06:30pm 18.4 13.2 11.5 64 3.8 S 30 35 16 19 1016.9 1016.9 0.0
01/06:00pm 18.3 12.6 11.1 63 3.9 S 32 43 17 23 1016.7 1016.7 0.0
01/05:30pm 19.0 13.3 11.8 63 4.0 S 33 41 18 22 1016.6 1016.6 0.0
01/05:00pm 19.1 13.0 11.9 63 4.0 SSW 35 46 19 25 1016.1 1016.1 0.0
01/04:30pm 20.3 14.8 12.0 59 4.6 S 32 44 17 24 1015.8 1015.8 0.0
01/04:00pm 20.2 14.5 11.7 58 4.7 S 33 44 18 24 1015.5 1015.5 0.0
01/03:30pm 20.0 13.7 11.2 57 4.8 S 35 46 19 25 1015.3 1015.3 0.0
01/03:00pm 20.8 15.3 11.7 56 5.1 S 32 43 17 23 1015.5 1015.5 0.0
01/02:30pm 20.6 14.7 11.2 55 5.2 S 33 43 18 23 1015.1 1015.1 0.0
01/02:00pm 20.6 15.2 12.3 59 4.7 S 32 41 17 22 1014.9 1014.9 0.0
01/01:30pm 21.2 16.2 12.1 56 5.1 S 30 41 16 22 1014.8 1014.8 0.0
01/01:00pm 20.9 16.0 13.6 63 4.2 SSW 32 41 17 22 1014.6 1014.6 0.0
01/12:30pm 20.2 15.3 12.4 61 4.4 SSW 30 41 16 22 1014.6 1014.6 0.0
01/12:00pm 20.3 16.8 12.3 60 4.5 SSW 22 32 12 17 1014.4 1014.4 0.0
01/11:30am 19.5 16.3 12.0 62 4.2 SW 20 30 11 16 1014.0 1014.0 0.0
01/11:00am 19.6 16.9 13.5 68 3.5 SSW 20 28 11 15 1013.7 1013.7 0.0
01/10:30am 18.8 16.4 13.9 73 2.8 SW 19 24 10 13 1013.4 1013.4 0.0
01/10:00am 18.0 15.9 13.5 75 2.5 WSW 17 24 9 13 1012.9 1012.9 0.0
01/09:30am 16.8 14.5 12.9 78 2.2 W 17 24 9 13 1012.6 1012.6 0.0
01/09:00am 16.3 14.0 13.0 81 1.8 WSW 17 22 9 12 1012.0 1012.0 13.4
01/08:30am 15.1 13.4 13.5 90 0.9 W 15 20 8 11 1011.5 1011.5 13.4
01/08:00am 13.9 11.9 12.8 93 0.6 WNW 15 19 8 10 1011.1 1011.1 13.4
01/07:30am 13.4 12.1 12.5 94 0.5 WNW 11 15 6 8 1010.2 1010.2 13.4
01/07:00am 13.3 11.5 12.2 93 0.6 W 13 17 7 9 1009.8 1009.8 13.4
01/06:30am 13.6 11.9 12.3 92 0.7 W 13 17 7 9 1009.2 1009.2 13.4
01/06:00am 13.9 11.9 12.6 92 0.7 W 15 19 8 10 1008.9 1008.9 13.4
01/05:30am 14.1 12.9 12.8 92 0.7 W 11 13 6 7 1008.4 1008.4 13.2
01/05:00am 14.5 13.0 13.0 91 0.8 W 13 19 7 10 1007.9 1007.9 13.2
01/04:30am 14.8 13.8 13.3 91 0.8 W 11 13 6 7 1007.6 1007.6 13.2
01/04:00am 15.1 13.0 13.5 90 0.9 W 17 22 9 12 1007.4 1007.4 13.2
01/03:30am 16.2 13.8 13.7 85 1.4 WSW 19 30 10 16 1007.2 1007.2 13.2
01/03:00am 15.9 14.0 14.3 90 0.9 SW 17 24 9 13 1007.0 1007.0 13.2
01/02:32am 15.3 11.5 14.7 96 0.3 SW 28 43 15 23 1006.9 1006.9 13.2
01/02:30am 15.4 11.6 14.6 95 0.5 SW 28 43 15 23 1007.0 1007.0 13.0
01/02:00am 16.5 13.5 15.9 96 0.4 SSW 26 37 14 20 1006.6 1006.6 12.6
01/01:49am 16.6 13.8 16.4 99 0.1 SSW 26 35 14 19 1006.5 1006.5 12.6
01/01:37am 16.7 14.3 16.5 99 0.1 SW 24 35 13 19 1006.5 1006.5 12.6
01/01:30am 16.7 13.2 16.5 99 0.1 SSW 30 41 16 22 1006.4 1006.4 12.4
01/01:11am 17.1 13.5 16.3 95 0.5 SSW 30 48 16 26 1006.3 1006.3 11.6
01/01:00am 18.1 16.9 17.1 94 0.6 SSW 19 28 10 15 1006.1 1006.1 10.8
01/12:58am 18.2 17.1 17.2 94 0.6 SSW 19 24 10 13 1006.1 1006.1 10.8
01/12:30am 18.8 19.9 18.1 96 0.4 WSW 9 13 5 7 1005.9 1005.9 10.8
01/12:27am 18.8 19.6 18.1 96 0.4 WSW 11 15 6 8 1005.9 1005.9 10.8
01/12:00am 18.9 19.0 18.4 97 0.3 W 15 20 8 11 1005.5 1005.5 10.6

Other Formats:

Comma delimited format used in spreadsheet applications
http://www.bom.gov.au/fwo/IDV60801/IDV60801.94854.axf

JavaScript Object Notation format (JSON) in row-major order
http://www.bom.gov.au/fwo/IDV60801/IDV60801.94854.json